Time;durP1;ratioP1;P1;durP2;ratioP2;P2;SDS_P1;SDS_P2;PMS_P1;PMS_P2;Temp;Humidity;BMP_temperature;BMP_pressure;BME280_temperature;BME280_humidity;BME280_pressure;Samples;Min_cycle;Max_cycle;Signal;HPM_P1;HPM_P2
2022/03/21 00:01:55;;;;;;;2.05;0.20;;;22.20;46.30;;;;;;5090050;28;20100;-44
2022/03/21 00:04:22;;;;;;;0.32;0.20;;;22.10;46.40;;;;;;5080892;28;20032;-43
2022/03/21 00:06:48;;;;;;;2.13;0.30;;;22.10;46.30;;;;;;5079408;28;20821;-45
2022/03/21 00:09:14;;;;;;;0.38;0.30;;;22.10;46.30;;;;;;5079910;28;20315;-44
2022/03/21 00:11:40;;;;;;;0.45;0.30;;;22.10;46.30;;;;;;5083146;28;20024;-44
2022/03/21 00:14:07;;;;;;;0.20;0.20;;;22.10;46.30;;;;;;5083475;28;20031;-45
2022/03/21 00:16:34;;;;;;;2.15;0.30;;;22.10;46.30;;;;;;5081393;28;20073;-43
2022/03/21 00:19:02;;;;;;;0.22;0.22;;;22.10;46.30;;;;;;5084575;28;20044;-44
2022/03/21 00:21:28;;;;;;;0.47;0.30;;;22.10;46.30;;;;;;5081129;28;20044;-44
2022/03/21 00:23:54;;;;;;;0.38;0.20;;;22.10;46.20;;;;;;5078656;28;20040;-44
2022/03/21 00:26:20;;;;;;;0.40;0.30;;;22.00;46.20;;;;;;5067186;28;20049;-45
2022/03/21 00:28:47;;;;;;;1.10;0.30;;;22.00;46.20;;;;;;5063092;28;20029;-45
2022/03/21 00:31:13;;;;;;;0.20;0.10;;;22.00;46.20;;;;;;5052506;28;20044;-46
2022/03/21 00:33:39;;;;;;;0.50;0.38;;;22.00;46.10;;;;;;5074084;28;20036;-47
2022/03/21 00:36:08;;;;;;;1.85;0.30;;;22.00;46.20;;;;;;5085283;28;20024;-45
2022/03/21 00:38:37;;;;;;;1.42;0.20;;;22.00;46.20;;;;;;5062239;28;20029;-46
2022/03/21 00:41:06;;;;;;;2.35;0.88;;;21.90;46.10;;;;;;5036172;28;20067;-45
2022/03/21 00:43:32;;;;;;;0.55;0.40;;;21.90;46.10;;;;;;5064279;28;20806;-45
2022/03/21 00:45:58;;;;;;;1.25;0.43;;;21.90;46.10;;;;;;5046370;28;21689;-44
2022/03/21 00:48:25;;;;;;;0.63;0.50;;;21.90;46.20;;;;;;5072130;28;20044;-47
2022/03/21 00:50:52;;;;;;;0.40;0.30;;;21.90;46.20;;;;;;5065049;28;20037;-44
2022/03/21 00:53:18;;;;;;;0.75;0.47;;;21.90;46.20;;;;;;5064111;28;20111;-44
2022/03/21 00:55:46;;;;;;;0.52;0.52;;;21.80;46.20;;;;;;5064052;28;20865;-44
2022/03/21 00:58:12;;;;;;;;;;;21.80;46.40;;;;;;5057809;28;20317;-45
2022/03/21 01:00:38;;;;;;;1.02;0.52;;;21.80;46.40;;;;;;5053027;28;19962;-45
2022/03/21 01:03:04;;;;;;;1.20;0.57;;;21.80;46.70;;;;;;5061435;28;20037;-45
2022/03/21 01:05:30;;;;;;;1.35;0.50;;;21.80;46.90;;;;;;5045460;28;20052;-45
2022/03/21 01:07:57;;;;;;;2.35;0.60;;;21.80;46.90;;;;;;5053792;28;20049;-46
2022/03/21 01:10:23;;;;;;;2.72;0.60;;;21.80;47.00;;;;;;5052984;28;20048;-45
2022/03/21 01:12:50;;;;;;;1.08;0.40;;;21.80;47.00;;;;;;5061287;28;20025;-45
2022/03/21 01:15:18;;;;;;;1.17;0.60;;;21.80;46.90;;;;;;5046677;28;20061;-47
2022/03/21 01:17:44;;;;;;;1.40;0.50;;;21.70;46.80;;;;;;5059863;28;20025;-45
2022/03/21 01:20:11;;;;;;;0.68;0.40;;;21.70;46.80;;;;;;5043749;28;20068;-45
2022/03/21 01:22:37;;;;;;;2.00;0.60;;;21.70;47.00;;;;;;5045561;28;20030;-45
2022/03/21 01:25:04;;;;;;;1.23;0.60;;;21.70;47.20;;;;;;5057178;28;20029;-45
2022/03/21 01:27:31;;;;;;;1.15;0.57;;;21.70;47.30;;;;;;5064888;28;20041;-45
2022/03/21 01:29:58;;;;;;;0.80;0.50;;;21.70;47.30;;;;;;5063592;28;20107;-45
2022/03/21 01:32:24;;;;;;;1.13;0.50;;;21.70;47.30;;;;;;5061682;28;20659;-45
2022/03/21 01:34:50;;;;;;;0.68;0.50;;;21.70;47.30;;;;;;5055226;28;20128;-44
2022/03/21 01:37:17;;;;;;;0.65;0.40;;;21.70;47.20;;;;;;5063834;28;20020;-44
2022/03/21 01:39:43;;;;;;;0.68;0.30;;;21.70;47.10;;;;;;5056548;28;20095;-45
2022/03/21 01:42:09;;;;;;;1.75;0.50;;;21.70;47.10;;;;;;5067787;28;20121;-44
2022/03/21 01:44:35;;;;;;;0.88;0.50;;;21.70;47.10;;;;;;5060998;28;20482;-44
2022/03/21 01:47:01;;;;;;;1.25;0.40;;;21.70;47.40;;;;;;5054131;28;20029;-45
2022/03/21 01:49:28;;;;;;;0.95;0.38;;;21.70;47.60;;;;;;5062443;28;20037;-45
2022/03/21 01:51:54;;;;;;;0.60;0.45;;;21.70;47.60;;;;;;5067013;28;20064;-45
2022/03/21 01:57:04;;;;;;;0.75;0.50;;;21.60;48.00;;;;;;5063937;28;20031;-45
2022/03/21 01:59:31;;;;;;;0.60;0.40;;;21.70;47.50;;;;;;5068389;28;20059;-44
2022/03/21 02:01:57;;;;;;;0.38;0.30;;;21.70;47.40;;;;;;5042689;28;20607;-44
2022/03/21 02:04:24;;;;;;;0.75;0.52;;;21.70;47.40;;;;;;5062583;28;20033;-44
2022/03/21 02:06:50;;;;;;;0.70;0.47;;;21.60;47.60;;;;;;5044167;28;20045;-44
2022/03/21 02:09:16;;;;;;;0.63;0.40;;;21.70;47.90;;;;;;5062102;28;20036;-44
2022/03/21 02:11:42;;;;;;;0.63;0.30;;;21.60;47.80;;;;;;5062262;28;20029;-45
2022/03/21 02:14:09;;;;;;;0.47;0.38;;;21.70;47.70;;;;;;5061940;28;20040;-45
2022/03/21 02:16:36;;;;;;;;;;;21.70;47.70;;;;;;5061632;28;20025;-45
2022/03/21 02:19:29;;;;;;;0.55;0.30;;;21.70;47.60;;;;;;5083020;28;19912;-45
2022/03/21 02:22:07;;;;;;;1.20;0.38;;;21.60;47.50;;;;;;5072645;28;20033;-45
2022/03/21 02:24:32;;;;;;;;;;;21.60;47.60;;;;;;5051892;28;20560;-45
2022/03/21 02:26:59;;;;;;;0.40;0.30;;;21.70;48.10;;;;;;5045339;28;19927;-44
2022/03/21 02:29:25;;;;;;;1.25;0.40;;;21.70;48.20;;;;;;5045340;28;20030;-44
2022/03/21 02:31:53;;;;;;;0.38;0.32;;;21.70;48.00;;;;;;5027429;28;20067;-44
2022/03/21 02:34:19;;;;;;;0.95;0.40;;;21.60;47.90;;;;;;5044119;28;20032;-44
2022/03/21 02:36:46;;;;;;;1.00;0.40;;;21.60;47.70;;;;;;5071872;28;20031;-44
2022/03/21 02:39:12;;;;;;;0.75;0.40;;;21.60;47.70;;;;;;5051223;28;20025;-45
2022/03/21 02:41:38;;;;;;;1.00;0.50;;;21.60;47.70;;;;;;5056863;28;20056;-44
2022/03/21 02:44:04;;;;;;;0.55;0.30;;;21.60;47.70;;;;;;5064651;28;20035;-43
2022/03/21 02:46:30;;;;;;;0.40;0.38;;;21.60;48.00;;;;;;5062104;28;20560;-45
2022/03/21 02:48:58;;;;;;;1.20;0.30;;;21.70;48.20;;;;;;5061725;28;20036;-44
2022/03/21 02:51:25;;;;;;;0.47;0.40;;;21.70;48.20;;;;;;5062225;28;20528;-44
2022/03/21 02:53:51;;;;;;;0.93;0.40;;;21.60;48.00;;;;;;5024527;28;20029;-44
2022/03/21 02:56:20;;;;;;;0.43;0.32;;;21.60;47.90;;;;;;5072363;28;20066;-45
2022/03/21 02:58:47;;;;;;;0.70;0.40;;;21.60;47.80;;;;;;5069116;28;20493;-44
2022/03/21 03:01:15;;;;;;;0.43;0.30;;;21.60;47.80;;;;;;5052114;28;20033;-44
2022/03/21 03:03:42;;;;;;;0.50;0.40;;;21.70;48.00;;;;;;5048588;28;20051;-45
2022/03/21 03:06:08;;;;;;;0.82;0.43;;;21.60;48.20;;;;;;5050415;28;20025;-44
2022/03/21 03:08:35;;;;;;;0.68;0.40;;;21.70;48.40;;;;;;5047303;28;20033;-44
2022/03/21 03:11:01;;;;;;;0.60;0.35;;;21.70;48.20;;;;;;5060563;28;20037;-43
2022/03/21 03:13:27;;;;;;;1.17;0.50;;;21.70;48.00;;;;;;5055299;28;20062;-43
2022/03/21 03:15:54;;;;;;;0.60;0.40;;;21.70;47.90;;;;;;5056814;28;20029;-43
2022/03/21 03:18:20;;;;;;;0.80;0.50;;;21.60;47.80;;;;;;5042789;28;20025;-45
2022/03/21 03:20:51;;;;;;;0.80;0.40;;;21.60;47.80;;;;;;5062221;28;20029;-44
2022/03/21 03:23:18;;;;;;;0.40;0.30;;;21.60;48.00;;;;;;5063525;28;20054;-45
2022/03/21 03:25:49;;;;;;;1.15;0.40;;;21.70;48.30;;;;;;5071490;28;20044;-44
2022/03/21 03:28:15;;;;;;;0.35;0.30;;;21.70;48.40;;;;;;5068147;28;20101;-45
2022/03/21 03:30:41;;;;;;;0.70;0.40;;;21.70;48.20;;;;;;5060712;28;20045;-44
2022/03/21 03:33:08;;;;;;;0.60;0.40;;;21.70;48.20;;;;;;5039228;28;20036;-44
2022/03/21 03:35:34;;;;;;;0.93;0.40;;;21.70;48.00;;;;;;5044197;28;20108;-47
2022/03/21 03:38:01;;;;;;;0.37;0.37;;;21.60;47.90;;;;;;5043152;28;20631;-45
2022/03/21 03:40:27;;;;;;;0.60;0.40;;;21.60;48.10;;;;;;5061504;28;20060;-45
2022/03/21 03:42:53;;;;;;;0.40;0.40;;;21.70;48.40;;;;;;5070198;28;20037;-46
2022/03/21 03:45:19;;;;;;;0.75;0.40;;;21.60;48.40;;;;;;5055095;28;20029;-46
2022/03/21 03:47:45;;;;;;;0.50;0.40;;;21.70;48.40;;;;;;5062526;28;20028;-43
2022/03/21 03:50:12;;;;;;;0.60;0.38;;;21.70;48.20;;;;;;5052964;28;20092;-44
2022/03/21 03:52:40;;;;;;;0.43;0.30;;;21.70;48.10;;;;;;5064645;28;20025;-45
2022/03/21 03:55:07;;;;;;;0.35;0.30;;;21.60;48.00;;;;;;5063330;28;20040;-45
2022/03/21 03:57:33;;;;;;;0.40;0.30;;;21.60;48.00;;;;;;5085673;28;20051;-44
2022/03/21 03:59:59;;;;;;;0.57;0.40;;;21.70;48.30;;;;;;5071228;28;20033;-46
2022/03/21 04:02:25;;;;;;;0.60;0.40;;;21.70;48.50;;;;;;5065178;28;20029;-45
2022/03/21 04:04:51;;;;;;;0.88;0.60;;;21.60;48.40;;;;;;5050951;28;20032;-45
2022/03/21 04:07:19;;;;;;;0.40;0.30;;;21.70;48.30;;;;;;5064243;28;20767;-47
2022/03/21 04:09:45;;;;;;;0.60;0.40;;;21.60;48.10;;;;;;5057797;28;20049;-45
2022/03/21 04:12:12;;;;;;;0.52;0.50;;;21.70;48.10;;;;;;5064185;28;20052;-45
2022/03/21 04:14:38;;;;;;;1.08;0.40;;;21.60;48.10;;;;;;5056393;28;20068;-45
2022/03/21 04:17:04;;;;;;;0.70;0.50;;;21.70;48.40;;;;;;5064730;28;20021;-45
2022/03/21 04:19:30;;;;;;;0.38;0.30;;;21.70;48.60;;;;;;5068500;28;20036;-44
2022/03/21 04:21:56;;;;;;;0.50;0.40;;;21.70;48.40;;;;;;5050566;28;20040;-45
2022/03/21 04:24:22;;;;;;;0.57;0.40;;;21.70;48.30;;;;;;5064341;28;20037;-45
2022/03/21 04:26:48;;;;;;;0.57;0.43;;;21.70;48.20;;;;;;5082249;28;20604;-46
2022/03/21 04:29:15;;;;;;;0.50;0.47;;;21.60;48.10;;;;;;5064666;28;20021;-46
2022/03/21 04:31:41;;;;;;;0.73;0.50;;;21.60;48.20;;;;;;5066771;28;20120;-46
2022/03/21 04:34:07;;;;;;;0.82;0.47;;;21.70;48.50;;;;;;5064820;28;20032;-45
2022/03/21 04:36:33;;;;;;;0.50;0.40;;;21.70;48.60;;;;;;5060651;28;20083;-45
2022/03/21 04:38:59;;;;;;;0.65;0.40;;;21.70;48.50;;;;;;5063325;28;20101;-45
2022/03/21 04:41:25;;;;;;;1.42;0.43;;;21.70;48.40;;;;;;5057816;28;20029;-46
2022/03/21 04:43:51;;;;;;;0.73;0.38;;;21.60;48.20;;;;;;5064504;28;20052;-45
2022/03/21 04:46:18;;;;;;;1.17;0.60;;;21.60;48.20;;;;;;5057907;28;20029;-45
2022/03/21 04:48:44;;;;;;;0.45;0.40;;;21.60;48.20;;;;;;5059782;28;20026;-45
2022/03/21 04:51:10;;;;;;;0.60;0.40;;;21.60;48.50;;;;;;5061049;28;20104;-45
2022/03/21 04:53:36;;;;;;;1.42;0.40;;;21.70;48.60;;;;;;5053491;28;20041;-45
2022/03/21 04:56:03;;;;;;;0.52;0.30;;;21.70;48.50;;;;;;5054426;28;20196;-45
2022/03/21 04:58:29;;;;;;;0.70;0.40;;;21.60;48.30;;;;;;5061180;28;20029;-45
2022/03/21 05:00:55;;;;;;;0.90;0.38;;;21.60;48.20;;;;;;5060880;28;20286;-45
2022/03/21 05:03:22;;;;;;;0.60;0.40;;;21.60;48.20;;;;;;5058545;28;20032;-45
2022/03/21 05:05:48;;;;;;;1.13;0.50;;;21.60;48.30;;;;;;5058100;28;20037;-45
2022/03/21 05:08:14;;;;;;;0.68;0.50;;;21.70;48.50;;;;;;5063941;28;20064;-45
2022/03/21 05:10:42;;;;;;;0.70;0.50;;;21.60;48.60;;;;;;5067763;28;20059;-46
2022/03/21 05:13:08;;;;;;;0.57;0.43;;;21.60;48.50;;;;;;5059955;28;20025;-45
2022/03/21 05:15:35;;;;;;;0.35;0.30;;;21.70;48.50;;;;;;5052240;28;20036;-46
2022/03/21 05:18:01;;;;;;;0.50;0.38;;;21.60;48.30;;;;;;5045525;28;20069;-45
2022/03/21 05:20:27;;;;;;;1.05;0.50;;;21.60;48.20;;;;;;5059992;28;20036;-45
2022/03/21 05:31:08;;;;;;;10.30;0.70;;;21.60;48.70;;;;;;5057144;28;20119;-44
2022/03/21 05:36:22;;;;;;;1.25;0.73;;;21.70;48.70;;;;;;5053149;28;20092;-45
2022/03/21 05:38:49;;;;;;;1.95;0.47;;;21.70;48.60;;;;;;5055844;28;20040;-46
2022/03/21 05:41:15;;;;;;;2.05;0.60;;;21.60;48.70;;;;;;5058801;28;20033;-46
2022/03/21 05:43:41;;;;;;;2.40;0.60;;;21.70;48.80;;;;;;5055129;28;22578;-43
2022/03/21 05:46:07;;;;;;;2.28;0.50;;;21.70;48.80;;;;;;5058910;28;20025;-45
2022/03/21 05:51:23;;;;;;;1.20;1.00;;;21.70;48.90;;;;;;5063202;28;20048;-39
2022/03/21 05:53:49;;;;;;;0.80;0.50;;;21.70;48.80;;;;;;5061083;28;20056;-40
2022/03/21 05:56:15;;;;;;;0.83;0.50;;;21.60;48.80;;;;;;5062835;28;20037;-39
2022/03/21 05:58:42;;;;;;;1.13;0.60;;;21.70;49.00;;;;;;5061763;28;20305;-40
2022/03/21 06:01:11;;;;;;;0.90;0.60;;;21.70;49.00;;;;;;5050865;28;20035;-39
2022/03/21 06:03:38;;;;;;;1.75;0.60;;;21.60;49.10;;;;;;5052233;28;20286;-39
2022/03/21 06:06:04;;;;;;;2.13;0.60;;;21.60;49.10;;;;;;5062580;28;20041;-40
2022/03/21 06:08:30;;;;;;;1.85;0.60;;;21.60;49.00;;;;;;5043613;28;20029;-40
2022/03/21 06:11:08;;;;;;;0.60;0.50;;;21.60;48.90;;;;;;5061848;28;20079;-40
2022/03/21 06:13:37;;;;;;;0.88;0.63;;;21.60;49.00;;;;;;5063079;28;20036;-40
2022/03/21 06:16:07;;;;;;;0.75;0.70;;;21.60;49.10;;;;;;5062894;28;20067;-39
2022/03/21 06:18:34;;;;;;;0.82;0.52;;;21.60;49.10;;;;;;5042931;28;20824;-40
2022/03/21 06:21:00;;;;;;;0.80;0.70;;;21.60;49.10;;;;;;5044160;28;20029;-39
2022/03/21 06:23:27;;;;;;;1.30;0.70;;;21.60;49.10;;;;;;5061790;28;20075;-39
2022/03/21 06:25:54;;;;;;;0.60;0.60;;;21.60;49.00;;;;;;5075554;28;20051;-39
2022/03/21 06:28:21;;;;;;;1.42;0.70;;;21.50;48.90;;;;;;5063029;28;20039;-39
2022/03/21 06:30:50;;;;;;;0.70;0.60;;;21.60;49.10;;;;;;5062836;28;20037;-39
2022/03/21 06:33:17;;;;;;;1.40;0.85;;;21.60;49.10;;;;;;5062122;28;20029;-40
2022/03/21 06:35:43;;;;;;;1.23;0.70;;;21.60;49.10;;;;;;5063206;28;20112;-40
2022/03/21 06:38:10;;;;;;;0.65;0.57;;;21.50;49.20;;;;;;5064215;28;20056;-40
2022/03/21 06:40:38;;;;;;;2.03;0.63;;;21.50;49.10;;;;;;5081553;28;20024;-40
2022/03/21 06:43:04;;;;;;;0.60;0.60;;;21.50;49.00;;;;;;5081895;28;20085;-40
2022/03/21 06:45:30;;;;;;;1.20;0.65;;;21.50;49.00;;;;;;5082814;28;20016;-40
2022/03/21 06:47:57;;;;;;;1.20;0.80;;;21.50;49.10;;;;;;5072072;28;20032;-40
2022/03/21 06:50:23;;;;;;;1.48;0.80;;;21.50;49.10;;;;;;5074852;28;20051;-40
2022/03/21 06:52:49;;;;;;;0.60;0.50;;;21.50;49.10;;;;;;5070115;28;20123;-40
2022/03/21 06:55:16;;;;;;;1.50;0.70;;;21.50;49.10;;;;;;5075367;28;20052;-40
2022/03/21 06:57:42;;;;;;;;;;;21.40;49.10;;;;;;5080226;28;20142;-40
2022/03/21 07:00:09;;;;;;;1.38;0.73;;;21.40;49.00;;;;;;5081637;28;19936;-41
2022/03/21 07:02:35;;;;;;;0.93;0.70;;;21.40;49.10;;;;;;5077223;28;20021;-40
2022/03/21 07:05:01;;;;;;;0.88;0.65;;;21.40;49.20;;;;;;5080201;28;20039;-40
2022/03/21 07:07:27;;;;;;;1.35;1.00;;;21.50;49.30;;;;;;5081920;28;20032;-40
2022/03/21 07:09:53;;;;;;;1.25;0.60;;;21.40;49.30;;;;;;5080587;28;20071;-40
2022/03/21 07:12:19;;;;;;;0.93;0.60;;;21.40;49.30;;;;;;5065898;28;20025;-40
2022/03/21 07:14:48;;;;;;;1.40;0.80;;;21.40;49.20;;;;;;5062799;28;20029;-40
2022/03/21 07:17:21;;;;;;;0.43;0.40;;;21.30;49.10;;;;;;5078908;28;20060;-40
2022/03/21 07:19:47;;;;;;;1.35;0.77;;;21.40;49.30;;;;;;5062355;28;20116;-40
2022/03/21 07:22:14;;;;;;;0.88;0.70;;;21.40;49.40;;;;;;5068975;28;20033;-39
2022/03/21 07:24:40;;;;;;;1.20;0.77;;;21.40;49.30;;;;;;5082316;28;20036;-39
2022/03/21 07:27:07;;;;;;;0.95;0.70;;;21.40;49.30;;;;;;5079514;28;20052;-40
2022/03/21 07:29:33;;;;;;;0.82;0.80;;;21.30;49.30;;;;;;5080504;28;20044;-39
2022/03/21 07:31:59;;;;;;;0.57;0.57;;;21.30;49.20;;;;;;5081954;28;20092;-39
2022/03/21 07:34:25;;;;;;;1.65;0.90;;;21.30;49.20;;;;;;5081947;28;20280;-39
2022/03/21 07:36:53;;;;;;;1.02;0.63;;;21.30;49.30;;;;;;5081761;28;20032;-39
2022/03/21 07:39:19;;;;;;;1.35;0.77;;;21.40;49.40;;;;;;5080777;28;20028;-40
2022/03/21 07:41:46;;;;;;;1.10;0.80;;;21.40;49.40;;;;;;5081621;28;20100;-39
2022/03/21 07:47:17;;;;;;;1.55;0.85;;;21.30;49.40;;;;;;5081829;28;20747;-39
2022/03/21 07:49:45;;;;;;;1.20;0.85;;;21.30;49.30;;;;;;5081132;28;20083;-39
2022/03/21 07:52:12;;;;;;;1.23;0.82;;;21.30;49.40;;;;;;5081453;28;20052;-39
2022/03/21 07:54:39;;;;;;;1.35;0.90;;;21.30;49.60;;;;;;5081700;28;20033;-39
2022/03/21 07:57:06;;;;;;;1.15;0.80;;;21.30;49.60;;;;;;5073387;28;20029;-39
2022/03/21 07:59:32;;;;;;;1.00;0.80;;;21.30;49.50;;;;;;5070595;28;20115;-39
2022/03/21 08:01:58;;;;;;;1.60;0.90;;;21.30;49.60;;;;;;5080718;28;20040;-39
2022/03/21 08:04:25;;;;;;;1.20;0.77;;;21.20;49.50;;;;;;5083343;28;20024;-39
2022/03/21 08:06:57;;;;;;;1.42;0.80;;;21.20;49.40;;;;;;5085716;28;20303;-39
2022/03/21 08:09:24;;;;;;;1.02;0.77;;;21.20;49.50;;;;;;5082103;28;20037;-39
2022/03/21 08:11:51;;;;;;;0.90;0.80;;;21.30;49.60;;;;;;5096772;28;20035;-39
2022/03/21 08:14:17;;;;;;;1.98;0.85;;;21.30;49.50;;;;;;5083784;28;20405;-39
2022/03/21 08:16:44;;;;;;;1.67;1.00;;;21.30;49.60;;;;;;5092331;28;20111;-39
2022/03/21 08:19:10;;;;;;;0.93;0.70;;;21.20;49.50;;;;;;5085595;28;20027;-39
2022/03/21 08:21:36;;;;;;;1.63;1.00;;;21.20;49.40;;;;;;5081287;28;20025;-39
2022/03/21 08:24:03;;;;;;;1.27;0.80;;;21.20;49.50;;;;;;5081745;28;20362;-39
2022/03/21 08:26:29;;;;;;;1.67;0.95;;;21.20;49.50;;;;;;5081457;28;20047;-39
2022/03/21 08:28:55;;;;;;;1.38;0.82;;;21.20;49.50;;;;;;5083983;28;20052;-40
2022/03/21 08:31:22;;;;;;;0.85;0.73;;;21.20;49.50;;;;;;5083807;28;20040;-39
2022/03/21 08:33:48;;;;;;;1.55;1.00;;;21.20;49.60;;;;;;5072806;28;20033;-39
2022/03/21 08:36:14;;;;;;;0.90;0.70;;;21.10;49.60;;;;;;5071125;28;20029;-39
2022/03/21 08:38:40;;;;;;;1.42;1.20;;;21.10;49.50;;;;;;5083906;28;20031;-39
2022/03/21 08:41:06;;;;;;;1.63;0.90;;;21.10;49.50;;;;;;5084700;28;20034;-39
2022/03/21 08:43:32;;;;;;;1.00;0.90;;;21.20;49.60;;;;;;5081199;28;20021;-39
2022/03/21 08:45:58;;;;;;;1.15;0.88;;;21.20;49.70;;;;;;5079570;28;20035;-40
2022/03/21 08:49:23;;;;;;;1.50;0.93;;;21.20;49.70;;;;;;5084645;28;20583;-39
2022/03/21 08:51:11;;;;;;;1.65;0.73;;;21.20;49.80;;;;;;5071628;28;20565;-39
2022/03/21 08:53:37;;;;;;;1.35;0.85;;;21.10;49.60;;;;;;5074507;28;20035;-39
2022/03/21 08:56:03;;;;;;;1.77;1.05;;;21.10;49.60;;;;;;5094862;28;20028;-39
2022/03/21 08:58:30;;;;;;;1.40;1.00;;;21.10;49.60;;;;;;5084699;28;20110;-39
2022/03/21 09:00:56;;;;;;;1.65;0.80;;;21.20;49.70;;;;;;5084191;28;20028;-39
2022/03/21 09:03:22;;;;;;;1.17;0.82;;;21.20;49.60;;;;;;5083969;28;20036;-39
2022/03/21 09:05:48;;;;;;;1.00;0.75;;;21.10;49.70;;;;;;5084683;28;20552;-39
2022/03/21 09:08:17;;;;;;;1.48;0.80;;;21.10;49.70;;;;;;5083585;28;20836;-40
2022/03/21 09:10:43;;;;;;;0.93;0.77;;;21.10;49.60;;;;;;5083189;28;20094;-40
2022/03/21 09:13:09;;;;;;;1.58;0.80;;;21.10;49.60;;;;;;5084063;28;20032;-40
2022/03/21 09:15:35;;;;;;;1.05;0.75;;;21.10;49.70;;;;;;5084278;28;20040;-39
2022/03/21 09:18:02;;;;;;;1.13;0.80;;;21.10;50.20;;;;;;5095254;28;20028;-40
2022/03/21 09:20:29;;;;;;;2.35;1.00;;;21.10;49.60;;;;;;5097771;28;20059;-39
2022/03/21 09:22:57;;;;;;;1.17;0.90;;;21.10;49.80;;;;;;5082853;28;20040;-40
2022/03/21 09:25:23;;;;;;;2.03;0.70;;;21.10;49.70;;;;;;5082278;28;20066;-40
2022/03/21 09:27:49;;;;;;;1.10;0.90;;;21.10;49.60;;;;;;5081280;28;20120;-39
2022/03/21 09:30:16;;;;;;;1.83;0.95;;;21.10;49.70;;;;;;5084721;28;20096;-39
2022/03/21 09:32:42;;;;;;;1.10;0.80;;;21.10;49.70;;;;;;5103116;28;20028;-39
2022/03/21 09:35:09;;;;;;;1.73;1.05;;;21.10;49.70;;;;;;5081032;28;20040;-39
2022/03/21 09:37:35;;;;;;;1.40;0.80;;;21.10;49.80;;;;;;5079823;28;20036;-39
2022/03/21 09:40:01;;;;;;;1.10;0.90;;;21.10;49.70;;;;;;5083810;28;20042;-39
2022/03/21 09:42:27;;;;;;;1.70;0.77;;;21.00;49.60;;;;;;5081477;28;20028;-39
2022/03/21 09:44:54;;;;;;;1.27;0.68;;;21.00;49.60;;;;;;5065343;28;20024;-39
2022/03/21 09:50:10;;;;;;;1.42;0.77;;;21.10;49.80;;;;;;5077531;28;20063;-39
2022/03/21 09:52:38;;;;;;;1.02;0.93;;;21.10;49.70;;;;;;5081944;28;20056;-39
2022/03/21 09:55:05;;;;;;;2.88;0.80;;;21.00;49.80;;;;;;5082885;28;20036;-39
2022/03/21 09:57:31;;;;;;;1.35;0.90;;;21.00;49.80;;;;;;5082272;28;20035;-39
2022/03/21 09:59:58;;;;;;;1.73;1.00;;;21.00;49.70;;;;;;5082036;28;20033;-38
2022/03/21 10:02:24;;;;;;;1.25;0.80;;;21.00;49.70;;;;;;5084627;28;20036;-38
2022/03/21 10:04:51;;;;;;;1.25;0.82;;;21.10;49.80;;;;;;5083485;28;20107;-39
2022/03/21 10:07:24;;;;;;;1.23;0.90;;;21.10;49.60;;;;;;5082723;28;20029;-39
2022/03/21 10:10:12;;;;;;;1.55;1.00;;;21.00;49.80;;;;;;5082279;28;20051;-39
2022/03/21 10:12:39;;;;;;;1.37;0.93;;;21.00;50.30;;;;;;5077516;28;20035;-39
2022/03/21 10:15:09;;;;;;;1.47;1.00;;;21.00;49.70;;;;;;5065179;28;20257;-39
2022/03/21 10:17:35;;;;;;;1.73;0.90;;;21.00;49.70;;;;;;5080998;28;20777;-39
2022/03/21 10:20:01;;;;;;;1.33;0.80;;;21.10;49.80;;;;;;5065256;28;20047;-39
2022/03/21 10:22:34;;;;;;;1.42;1.02;;;21.10;49.70;;;;;;5081993;28;20029;-40
2022/03/21 10:25:06;;;;;;;2.40;0.90;;;21.00;49.80;;;;;;5082769;28;20300;-39
2022/03/21 10:27:34;;;;;;;1.35;0.93;;;21.00;49.80;;;;;;5054141;28;20053;-39
2022/03/21 10:30:08;;;;;;;1.90;0.82;;;21.00;49.80;;;;;;5062676;28;20131;-38
2022/03/21 10:32:42;;;;;;;1.50;0.90;;;21.10;49.80;;;;;;5077963;28;20055;-39
2022/03/21 10:35:17;;;;;;;3.83;1.13;;;21.10;49.90;;;;;;5082197;28;20033;-39
2022/03/21 10:37:56;;;;;;;6.13;1.00;;;21.10;50.00;;;;;;5082108;28;20028;-39
2022/03/21 10:40:27;;;;;;;5.45;1.35;;;21.10;49.90;;;;;;5083868;28;20032;-39
2022/03/21 10:43:00;;;;;;;4.97;1.20;;;21.10;49.80;;;;;;5065477;28;20064;-40
2022/03/21 10:45:35;;;;;;;3.78;1.25;;;21.10;49.70;;;;;;5081935;28;20056;-42
2022/03/21 10:48:04;;;;;;;4.25;1.00;;;21.10;49.70;;;;;;5081332;28;20032;-39
2022/03/21 10:50:34;;;;;;;2.13;1.00;;;21.10;49.70;;;;;;5082977;28;20047;-39
2022/03/21 10:53:06;;;;;;;1.98;0.85;;;21.10;49.80;;;;;;5089774;28;20031;-39
2022/03/21 10:55:32;;;;;;;1.02;0.85;;;21.10;49.70;;;;;;5102648;28;20050;-39
2022/03/21 10:57:58;;;;;;;3.35;0.88;;;21.00;49.50;;;;;;5064763;28;20040;-39
2022/03/21 11:00:32;;;;;;;2.30;1.10;;;21.00;49.40;;;;;;5082946;28;20025;-39
2022/03/21 11:03:15;;;;;;;1.65;1.10;;;21.00;49.40;;;;;;5068476;28;20095;-39
2022/03/21 11:05:48;;;;;;;1.33;1.05;;;21.00;49.40;;;;;;5062146;28;20033;-39
2022/03/21 11:08:16;;;;;;;1.15;0.90;;;21.10;49.50;;;;;;5068636;28;20021;-39
2022/03/21 11:10:42;;;;;;;;;;;21.00;49.70;;;;;;5082672;28;20040;-39
2022/03/21 11:13:09;;;;;;;1.60;0.80;;;21.00;49.60;;;;;;5082047;28;19908;-39
2022/03/21 11:15:37;;;;;;;1.30;0.93;;;21.00;49.40;;;;;;5082128;28;20032;-39
2022/03/21 11:18:04;;;;;;;1.85;1.10;;;20.90;49.30;;;;;;5080765;28;20044;-39
2022/03/21 11:20:30;;;;;;;1.33;1.10;;;20.90;49.30;;;;;;5081072;28;20032;-39
2022/03/21 11:23:01;;;;;;;1.05;0.80;;;21.00;49.40;;;;;;5061879;28;20033;-39
2022/03/21 11:25:35;;;;;;;1.98;1.20;;;21.00;49.50;;;;;;5080387;28;20020;-39
2022/03/21 11:28:21;;;;;;;1.35;0.90;;;21.00;49.70;;;;;;5063406;28;20029;-39
2022/03/21 11:31:02;;;;;;;2.10;1.10;;;21.00;49.60;;;;;;5063733;28;20477;-39
2022/03/21 11:33:56;;;;;;;1.67;1.10;;;20.90;49.40;;;;;;5081508;28;20787;-39
2022/03/21 11:36:23;;;;;;;2.00;1.00;;;20.90;49.30;;;;;;5071443;28;20029;-39
2022/03/21 11:38:49;;;;;;;1.60;1.10;;;20.90;49.40;;;;;;5052131;28;20052;-39
2022/03/21 11:41:18;;;;;;;2.13;1.37;;;21.00;49.50;;;;;;5073244;28;20139;-39
2022/03/21 11:43:45;;;;;;;1.98;1.55;;;21.00;49.60;;;;;;5080924;28;20032;-39
2022/03/21 11:46:25;;;;;;;2.53;1.30;;;21.00;49.70;;;;;;5077937;28;20043;-39
2022/03/21 11:48:53;;;;;;;1.88;1.10;;;20.90;49.50;;;;;;5080348;28;20055;-39
2022/03/21 11:51:19;;;;;;;1.20;0.90;;;20.90;49.50;;;;;;5065697;28;20068;-39
2022/03/21 11:53:49;;;;;;;2.00;1.10;;;20.90;49.40;;;;;;5074066;28;20029;-39
2022/03/21 11:56:37;;;;;;;1.60;1.27;;;20.90;49.40;;;;;;5081530;28;20144;-39
2022/03/21 11:59:03;;;;;;;1.90;1.00;;;20.90;49.50;;;;;;5066342;28;20036;-39
2022/03/21 12:01:30;;;;;;;0.90;0.65;;;20.90;49.60;;;;;;5080880;28;20028;-39
2022/03/21 12:04:29;;;;;;;2.67;1.27;;;20.90;49.50;;;;;;5083687;28;20060;-39
2022/03/21 12:06:59;;;;;;;2.28;1.20;;;20.80;49.40;;;;;;5014876;28;20054;-39
2022/03/21 12:09:42;;;;;;;1.90;1.30;;;20.80;49.40;;;;;;4998445;28;20122;-39
2022/03/21 12:12:11;;;;;;;1.55;1.00;;;20.90;49.40;;;;;;4986818;28;20030;-39
2022/03/21 12:14:41;;;;;;;2.63;1.40;;;20.90;49.40;;;;;;5003893;28;20110;-39
2022/03/21 12:17:13;;;;;;;1.77;1.00;;;20.90;49.50;;;;;;5002950;28;20046;-39
2022/03/21 12:19:50;;;;;;;1.15;0.90;;;20.90;49.50;;;;;;4987211;28;20031;-39
2022/03/21 12:22:34;;;;;;;1.85;1.05;;;20.80;49.30;;;;;;4998405;28;20026;-39
2022/03/21 12:25:04;;;;;;;2.05;1.35;;;20.80;49.30;;;;;;4999660;28;20721;-39
2022/03/21 12:27:45;;;;;;;1.63;0.90;;;20.80;49.30;;;;;;4992937;28;20510;-39
2022/03/21 12:30:20;;;;;;;1.30;1.10;;;20.90;49.50;;;;;;5002187;28;20106;-39
2022/03/21 12:32:50;;;;;;;1.50;1.00;;;20.90;49.60;;;;;;5002312;28;20033;-39
2022/03/21 12:35:32;;;;;;;2.05;1.10;;;20.80;49.40;;;;;;5002796;28;20066;-39
2022/03/21 12:38:17;;;;;;;2.08;1.08;;;20.80;49.80;;;;;;5000264;28;20120;-39
2022/03/21 12:40:50;;;;;;;1.73;1.27;;;20.80;49.30;;;;;;4994146;28;20497;-39
2022/03/21 12:43:20;;;;;;;1.85;1.15;;;20.80;49.30;;;;;;5066650;28;20040;-39
2022/03/21 12:45:49;;;;;;;2.53;1.10;;;20.90;49.50;;;;;;5076080;28;20029;-39
2022/03/21 12:48:19;;;;;;;1.67;1.10;;;20.80;49.40;;;;;;5064598;28;20040;-39
2022/03/21 12:50:49;;;;;;;1.48;1.10;;;20.80;49.30;;;;;;5064408;28;20579;-39
2022/03/21 12:53:18;;;;;;;2.60;1.35;;;20.70;49.30;;;;;;5084307;28;20099;-39
2022/03/21 12:55:46;;;;;;;3.15;1.27;;;20.80;49.30;;;;;;5084715;28;20025;-40
2022/03/21 12:58:12;;;;;;;;;;;20.80;49.30;;;;;;5086668;28;20713;-39
2022/03/21 13:00:40;;;;;;;1.50;0.90;;;20.80;49.40;;;;;;5084274;28;19908;-39
2022/03/21 13:03:07;;;;;;;1.95;1.38;;;20.80;49.40;;;;;;5084455;28;20051;-39
2022/03/21 13:11:46;;;;;;;2.53;1.50;;;20.80;49.30;;;;;;5077453;28;20043;-39
2022/03/21 13:14:14;;;;;;;2.30;1.63;;;20.80;49.40;;;;;;5084288;28;20768;-39
2022/03/21 13:17:03;;;;;;;2.92;1.48;;;20.80;49.50;;;;;;5083121;28;20032;-39
2022/03/21 13:19:33;;;;;;;3.17;1.65;;;20.90;49.60;;;;;;5069500;28;20381;-39
2022/03/21 13:22:07;;;;;;;2.70;1.75;;;20.80;49.60;;;;;;5083563;28;20081;-39